Time;durP1;ratioP1;P1;durP2;ratioP2;P2;SDS_P1;SDS_P2;PMS_P1;PMS_P2;Temp;Humidity;BMP_temperature;BMP_pressure;BME280_temperature;BME280_humidity;BME280_pressure;Samples;Min_cycle;Max_cycle;Signal;HPM_P1;HPM_P2
2023/08/05 04:00:31;;;;;;;8.95;6.32;;;15.40;99.90;;;;;;5965530;23;20108;31
2023/08/05 04:02:56;;;;;;;;;;;15.30;99.90;;;;;;4878644;29;20379;-65
2023/08/05 04:05:22;;;;;;;10.20;6.22;;;15.20;99.90;;;;;;4881622;29;19935;-65
2023/08/05 04:07:47;;;;;;;8.60;6.10;;;15.30;99.90;;;;;;4881608;29;20036;-66
2023/08/05 04:10:13;;;;;;;11.53;6.77;;;15.20;99.90;;;;;;4881508;29;20036;-66
2023/08/05 04:12:38;;;;;;;16.52;6.53;;;15.20;99.90;;;;;;4881552;29;20509;-64
2023/08/05 04:15:06;;;;;;;8.33;6.47;;;15.10;99.90;;;;;;4929529;23;20506;-68
2023/08/05 04:17:32;;;;;;;11.20;6.53;;;15.00;99.90;;;;;;4975430;28;20046;-68
2023/08/05 04:19:58;;;;;;;12.70;7.10;;;15.00;99.90;;;;;;4976816;28;20459;-67
2023/08/05 04:22:25;;;;;;;7.68;6.20;;;15.00;99.90;;;;;;4976822;28;20030;-67
2023/08/05 04:24:51;;;;;;;11.95;6.70;;;15.00;99.90;;;;;;4976429;28;20026;-66
2023/08/05 04:27:17;;;;;;;;;;;14.90;99.90;;;;;;4976582;28;20472;-68
2023/08/05 04:29:42;;;;;;;12.45;6.28;;;15.10;99.90;;;;;;4974831;28;19913;-68
2023/08/05 04:32:08;;;;;;;10.83;6.63;;;15.20;99.90;;;;;;4975974;28;20078;-68
2023/08/05 04:34:37;;;;;;;10.65;6.28;;;15.20;99.90;;;;;;4976144;28;20262;-68
2023/08/05 04:37:20;;;;;;;12.35;6.85;;;15.30;99.90;;;;;;4976080;28;20023;-69
2023/08/05 04:39:46;;;;;;;15.13;7.15;;;15.30;99.90;;;;;;4976036;28;20451;-67
2023/08/05 04:42:12;;;;;;;11.38;6.85;;;15.40;99.90;;;;;;4974863;28;20061;-68
2023/08/05 04:44:42;;;;;;;11.32;6.82;;;15.10;99.90;;;;;;4976283;28;20031;-68
2023/08/05 04:47:11;;;;;;;11.07;6.65;;;15.10;99.90;;;;;;4961862;28;20383;-66
2023/08/05 04:49:40;;;;;;;9.43;6.57;;;15.10;99.90;;;;;;4956717;28;20110;-68
2023/08/05 04:52:06;;;;;;;9.32;6.72;;;15.30;99.90;;;;;;4956878;28;20058;-67
2023/08/05 04:54:43;;;;;;;10.38;7.00;;;15.40;99.90;;;;;;4956281;28;20086;-68
2023/08/05 04:57:09;;;;;;;10.70;6.85;;;15.40;99.90;;;;;;4957052;28;20035;-65
2023/08/05 04:59:35;;;;;;;13.80;7.80;;;15.40;99.90;;;;;;4955634;29;20031;-66
2023/08/05 05:02:01;;;;;;;12.07;7.68;;;15.30;99.90;;;;;;4955315;29;20078;-66
2023/08/05 05:04:26;;;;;;;13.55;7.70;;;15.20;99.90;;;;;;4956818;28;20036;-65
2023/08/05 05:06:52;;;;;;;15.10;7.55;;;15.30;99.90;;;;;;4957013;28;20023;-66
2023/08/05 05:09:17;;;;;;;10.40;8.10;;;15.40;99.90;;;;;;4957584;28;20481;-66
2023/08/05 05:11:43;;;;;;;9.55;6.97;;;15.50;99.90;;;;;;4959658;28;20480;-66
2023/08/05 05:14:08;;;;;;;9.47;6.90;;;15.60;99.90;;;;;;4956961;29;20035;-65
2023/08/05 05:16:34;;;;;;;10.27;7.17;;;15.40;99.90;;;;;;4955282;29;20279;-66
2023/08/05 05:19:00;;;;;;;9.13;6.57;;;15.40;99.90;;;;;;4956455;28;20033;-66
2023/08/05 05:21:26;;;;;;;10.97;7.37;;;15.40;99.90;;;;;;4955147;29;20103;-66
2023/08/05 05:23:51;;;;;;;9.38;6.85;;;15.60;99.90;;;;;;4956627;29;20354;-66
2023/08/05 05:26:17;;;;;;;10.73;6.70;;;15.50;99.90;;;;;;4955468;28;20028;-65
2023/08/05 05:28:42;;;;;;;13.10;7.03;;;15.50;99.90;;;;;;4956796;28;20027;-66
2023/08/05 05:31:08;;;;;;;8.73;6.17;;;15.60;99.90;;;;;;4955135;29;20483;-67
2023/08/05 05:33:33;;;;;;;13.20;7.23;;;15.60;99.90;;;;;;4954816;29;20640;-66
2023/08/05 05:35:59;;;;;;;13.60;6.40;;;15.60;99.90;;;;;;4956131;28;20484;-66
2023/08/05 05:38:24;;;;;;;10.93;7.60;;;15.50;99.90;;;;;;4956468;28;20046;-65
2023/08/05 05:40:53;;;;;;;11.35;6.90;;;15.70;99.90;;;;;;4956730;28;20031;-66
2023/08/05 05:43:18;;;;;;;11.00;6.68;;;15.80;99.90;;;;;;4957254;28;20031;-66
2023/08/05 05:45:46;;;;;;;12.57;6.77;;;15.90;99.90;;;;;;4955677;28;20465;-66
2023/08/05 05:48:12;;;;;;;9.68;6.90;;;15.80;99.90;;;;;;4955608;29;20267;-66
2023/08/05 05:50:39;;;;;;;8.13;6.38;;;15.90;99.90;;;;;;4956136;28;20031;-67
2023/08/05 05:53:05;;;;;;;8.93;6.68;;;15.80;99.90;;;;;;4956162;28;20436;-68
2023/08/05 05:55:32;;;;;;;10.88;7.00;;;15.80;99.90;;;;;;4956203;28;20023;-66
2023/08/05 05:57:58;;;;;;;11.13;6.05;;;16.00;99.90;;;;;;4955875;28;20059;-65
2023/08/05 06:00:23;;;;;;;8.50;6.50;;;16.00;99.90;;;;;;4955022;29;20477;-66
2023/08/05 06:02:49;;;;;;;9.50;6.63;;;16.10;99.90;;;;;;4956116;29;20038;-65
2023/08/05 06:05:14;;;;;;;10.15;6.68;;;16.20;99.90;;;;;;4958286;28;20020;-66
2023/08/05 06:07:40;;;;;;;8.20;6.38;;;16.20;99.90;;;;;;4957791;29;20028;-65
2023/08/05 06:10:06;;;;;;;11.03;6.30;;;16.20;99.90;;;;;;4957959;28;20130;-65
2023/08/05 06:12:36;;;;;;;8.23;6.25;;;16.30;99.90;;;;;;4958157;28;20027;-66
2023/08/05 06:15:01;;;;;;;9.27;6.85;;;16.30;99.90;;;;;;4955028;28;20031;-66
2023/08/05 06:17:27;;;;;;;10.80;6.30;;;16.30;99.90;;;;;;4952825;29;20035;-66
2023/08/05 06:19:53;;;;;;;11.20;6.65;;;16.30;99.90;;;;;;4960534;28;20038;-66
2023/08/05 06:22:19;;;;;;;10.38;6.68;;;16.30;99.90;;;;;;4964140;29;20019;-66
2023/08/05 06:24:44;;;;;;;9.18;6.35;;;16.30;99.90;;;;;;4957539;28;20035;-66
2023/08/05 06:27:10;;;;;;;11.80;6.15;;;16.50;99.90;;;;;;4943767;29;20032;-65
2023/08/05 06:29:35;;;;;;;9.00;6.03;;;16.60;99.90;;;;;;4940855;29;20031;-65
2023/08/05 06:32:01;;;;;;;9.10;6.03;;;16.50;99.90;;;;;;4958751;29;20097;-67
2023/08/05 06:34:26;;;;;;;8.43;6.27;;;16.40;99.90;;;;;;4958914;28;20358;-65
2023/08/05 06:36:52;;;;;;;13.03;5.80;;;16.50;99.90;;;;;;4958843;28;20034;-66
2023/08/05 06:39:17;;;;;;;10.38;5.60;;;16.70;99.90;;;;;;4958289;28;20042;-66
2023/08/05 06:41:43;;;;;;;7.97;5.30;;;16.90;99.90;;;;;;4957726;29;20024;-67
2023/08/05 06:44:08;;;;;;;7.73;5.77;;;16.90;99.90;;;;;;4959240;28;20040;-67
2023/08/05 06:46:34;;;;;;;10.70;6.03;;;16.90;99.90;;;;;;4957491;29;20262;-66
2023/08/05 06:49:00;;;;;;;9.13;5.68;;;16.90;99.90;;;;;;4959789;28;20027;-67
2023/08/05 06:51:26;;;;;;;9.57;5.93;;;16.90;99.90;;;;;;4959167;28;20074;-65
2023/08/05 06:53:52;;;;;;;7.18;5.40;;;17.10;99.90;;;;;;4955405;29;20127;-67
2023/08/05 06:56:17;;;;;;;6.47;4.83;;;17.10;99.90;;;;;;4958420;28;20023;-66
2023/08/05 06:58:43;;;;;;;6.30;5.05;;;17.10;99.90;;;;;;4958945;28;20107;-65
2023/08/05 07:01:09;;;;;;;7.90;5.30;;;17.00;99.90;;;;;;4957268;29;20035;-66
2023/08/05 07:03:34;;;;;;;10.40;5.90;;;17.00;99.90;;;;;;4958023;28;20277;-66
2023/08/05 07:06:00;;;;;;;8.77;5.03;;;17.10;99.90;;;;;;4959238;28;20035;-66
2023/08/05 07:08:25;;;;;;;9.75;5.75;;;17.10;99.90;;;;;;4958928;28;20090;-66
2023/08/05 07:10:58;;;;;;;11.45;5.28;;;17.20;99.90;;;;;;4958563;28;20106;-66
2023/08/05 07:13:24;;;;;;;7.53;4.75;;;17.40;99.90;;;;;;4958649;28;20031;-66
2023/08/05 07:15:50;;;;;;;10.30;4.47;;;17.40;99.90;;;;;;4958385;28;20519;-67
2023/08/05 07:18:16;;;;;;;8.93;5.22;;;17.60;99.90;;;;;;4958391;28;20036;-66
2023/08/05 07:20:42;;;;;;;8.38;4.57;;;17.60;99.90;;;;;;4958346;28;20082;-66
2023/08/05 07:23:07;;;;;;;6.63;4.80;;;17.80;99.90;;;;;;4958432;28;20091;-67
2023/08/05 07:25:33;;;;;;;8.35;5.30;;;17.90;99.90;;;;;;4958542;28;20031;-65
2023/08/05 07:27:59;;;;;;;8.15;5.32;;;17.90;99.90;;;;;;4958696;28;20019;-66
2023/08/05 07:30:24;;;;;;;7.45;5.25;;;17.80;99.90;;;;;;4957775;28;20039;-68
2023/08/05 07:32:50;;;;;;;8.82;4.72;;;17.90;99.90;;;;;;4956066;29;20023;-66
2023/08/05 07:35:15;;;;;;;8.17;4.33;;;18.00;99.90;;;;;;4954060;28;20106;-67
2023/08/05 07:37:44;;;;;;;5.15;4.40;;;18.20;99.90;;;;;;4958227;28;20333;-67
2023/08/05 07:40:12;;;;;;;6.05;4.40;;;18.40;99.90;;;;;;4957956;28;20059;-67
2023/08/05 07:42:39;;;;;;;5.38;4.32;;;18.60;99.90;;;;;;4953094;28;20028;-66
2023/08/05 07:45:10;;;;;;;6.63;4.18;;;18.60;99.90;;;;;;4956587;28;20042;-68
2023/08/05 07:47:40;;;;;;;8.45;4.32;;;18.60;99.90;;;;;;4954559;29;20023;-66
2023/08/05 07:50:16;;;;;;;10.68;4.43;;;18.50;99.90;;;;;;4960544;28;20503;-67
2023/08/05 07:52:42;;;;;;;9.03;3.77;;;18.60;99.90;;;;;;4951929;29;20503;-65
2023/08/05 07:55:08;;;;;;;;;;;18.70;99.90;;;;;;4938815;29;20027;-64
2023/08/05 07:57:35;;;;;;;5.97;3.83;;;18.70;99.90;;;;;;4938369;29;20399;-66
2023/08/05 08:00:00;;;;;;;5.53;3.90;;;18.90;99.90;;;;;;4940350;29;20030;-66
2023/08/05 08:02:26;;;;;;;7.15;4.10;;;19.00;99.90;;;;;;4957548;29;20027;-67
2023/08/05 08:04:54;;;;;;;6.30;4.22;;;19.10;99.90;;;;;;4954370;28;20051;-67
2023/08/05 08:07:21;;;;;;;5.55;4.00;;;19.10;99.90;;;;;;4953758;29;20053;-67
2023/08/05 08:09:47;;;;;;;5.50;3.97;;;19.20;99.90;;;;;;4957070;28;20050;-66
2023/08/05 08:12:13;;;;;;;6.72;4.18;;;19.40;99.90;;;;;;4956114;28;20476;-66
2023/08/05 08:14:38;;;;;;;4.22;3.45;;;19.60;99.90;;;;;;4956943;28;20031;-66
2023/08/05 08:17:04;;;;;;;8.15;3.30;;;19.70;99.90;;;;;;4957587;28;20041;-66
2023/08/05 08:19:30;;;;;;;4.55;3.17;;;19.90;99.90;;;;;;4955345;28;20036;-64
2023/08/05 08:21:55;;;;;;;5.35;3.70;;;20.20;99.90;;;;;;4954799;28;20055;-66
2023/08/05 08:24:21;;;;;;;7.10;4.13;;;20.20;99.90;;;;;;4953643;29;20059;-66
2023/08/05 08:26:46;;;;;;;9.15;4.10;;;20.30;99.90;;;;;;4957113;28;20042;-64
2023/08/05 08:29:12;;;;;;;5.95;3.83;;;20.20;99.90;;;;;;4955806;29;20031;-67
2023/08/05 08:31:37;;;;;;;4.85;2.83;;;20.20;99.90;;;;;;4957075;28;20034;-65
2023/08/05 08:34:03;;;;;;;5.80;2.80;;;22.30;99.90;;;;;;4953553;28;20476;-65
2023/08/05 08:36:29;;;;;;;6.25;2.80;;;24.90;99.90;;;;;;4956355;28;20476;-61
2023/08/05 08:38:54;;;;;;;;;;;27.40;99.60;;;;;;4952528;29;20023;-66
2023/08/05 08:41:20;;;;;;;5.25;2.50;;;29.20;96.50;;;;;;4953271;28;19910;-65
2023/08/05 08:43:48;;;;;;;3.75;2.47;;;30.90;93.30;;;;;;4954538;29;20019;-66
2023/08/05 08:46:14;;;;;;;2.60;2.38;;;31.70;91.30;;;;;;4956681;28;20027;-65
2023/08/05 08:48:41;;;;;;;5.20;2.95;;;30.80;91.10;;;;;;4952143;28;20609;-65
2023/08/05 08:51:08;;;;;;;3.97;2.67;;;29.00;92.40;;;;;;4952041;29;20023;-66
2023/08/05 08:53:34;;;;;;;5.75;2.97;;;27.10;94.40;;;;;;4954853;29;20372;-67
2023/08/05 08:56:00;;;;;;;5.55;2.45;;;27.10;95.20;;;;;;4955832;28;20030;-66
2023/08/05 08:58:26;;;;;;;4.47;2.50;;;27.60;94.20;;;;;;4948897;29;20094;-66
2023/08/05 09:00:53;;;;;;;4.47;2.30;;;27.60;94.00;;;;;;4947011;29;20039;-66
2023/08/05 09:03:22;;;;;;;4.43;2.40;;;28.40;93.40;;;;;;4955083;28;20027;-67
2023/08/05 09:05:49;;;;;;;3.55;2.45;;;29.10;92.30;;;;;;4956665;28;20038;-65
2023/08/05 09:08:15;;;;;;;4.38;2.65;;;29.50;92.10;;;;;;4956343;28;20030;-65
2023/08/05 09:10:43;;;;;;;6.03;2.17;;;30.50;91.00;;;;;;4954026;28;20027;-65
2023/08/05 09:13:09;;;;;;;4.82;2.40;;;31.70;89.20;;;;;;4954459;28;20094;-66
2023/08/05 09:15:39;;;;;;;3.00;2.13;;;32.80;86.30;;;;;;4951636;28;20436;-64
2023/08/05 09:18:05;;;;;;;3.60;2.35;;;33.40;84.80;;;;;;4947695;29;20028;-65
2023/08/05 09:20:37;;;;;;;3.28;2.20;;;34.50;82.50;;;;;;4945941;28;20098;-65
2023/08/05 09:23:08;;;;;;;5.20;2.30;;;35.70;78.90;;;;;;4955638;29;20392;-64
2023/08/05 09:25:39;;;;;;;3.78;2.60;;;35.60;76.80;;;;;;4953500;29;20011;-65
2023/08/05 09:28:06;;;;;;;3.80;2.60;;;35.20;75.40;;;;;;4955852;28;20030;-66
2023/08/05 09:30:35;;;;;;;3.53;2.15;;;34.80;75.50;;;;;;4955647;28;20055;-67
2023/08/05 09:33:01;;;;;;;4.43;2.38;;;34.10;76.40;;;;;;4952448;28;20045;-67
2023/08/05 09:35:27;;;;;;;3.83;2.42;;;32.10;78.90;;;;;;4952748;28;20031;-67
2023/08/05 09:37:54;;;;;;;3.88;2.30;;;30.10;82.60;;;;;;4949969;29;20101;-67
2023/08/05 09:40:25;;;;;;;4.57;2.50;;;30.80;81.90;;;;;;4954503;29;20054;-66
2023/08/05 09:42:54;;;;;;;5.43;2.25;;;31.40;79.90;;;;;;4956117;28;20020;-67
2023/08/05 09:45:21;;;;;;;3.33;2.28;;;31.20;81.10;;;;;;4953157;28;20019;-66
2023/08/05 09:47:49;;;;;;;4.63;2.60;;;32.00;80.20;;;;;;4954514;28;20249;-66
2023/08/05 09:50:17;;;;;;;5.10;2.40;;;32.10;79.90;;;;;;4955741;28;20023;-66
2023/08/05 09:52:43;;;;;;;2.53;2.03;;;32.50;79.40;;;;;;4954407;29;20036;-66
2023/08/05 09:55:17;;;;;;;3.55;2.42;;;33.60;77.90;;;;;;4946932;28;20023;-67
2023/08/05 09:57:43;;;;;;;3.80;2.13;;;34.70;75.70;;;;;;4952166;29;20183;-67
2023/08/05 10:00:14;;;;;;;4.75;2.70;;;33.30;76.20;;;;;;4955016;28;20027;-66
2023/08/05 10:02:44;;;;;;;3.70;2.20;;;32.20;77.50;;;;;;4951205;28;20039;-67
2023/08/05 10:05:12;;;;;;;4.97;2.67;;;31.50;79.30;;;;;;4953621;28;20478;-66
2023/08/05 10:07:40;;;;;;;4.80;2.40;;;32.00;79.30;;;;;;4954334;28;20365;-66
2023/08/05 10:10:20;;;;;;;4.20;1.90;;;33.20;77.40;;;;;;4953877;29;20082;-67
2023/08/05 10:12:51;;;;;;;3.67;2.10;;;33.20;76.20;;;;;;4955760;28;20357;-66
2023/08/05 10:15:32;;;;;;;3.60;2.13;;;33.60;75.70;;;;;;4975858;23;20043;-63
2023/08/05 10:17:57;;;;;;;3.20;2.00;;;34.10;74.50;;;;;;4936278;29;20487;-63
2023/08/05 10:20:23;;;;;;;3.13;2.13;;;34.30;74.40;;;;;;4937064;29;20046;-64
2023/08/05 10:23:03;;;;;;;5.53;2.00;;;33.50;73.90;;;;;;4931490;29;20032;-63
2023/08/05 10:25:46;;;;;;;5.25;2.75;;;32.60;75.80;;;;;;4938377;29;20038;-62
2023/08/05 10:28:24;;;;;;;5.25;2.28;;;33.30;76.10;;;;;;4955070;29;20035;-63
2023/08/05 10:30:50;;;;;;;6.15;2.35;;;34.00;75.30;;;;;;4938327;29;20113;-62
2023/08/05 10:33:16;;;;;;;3.67;1.80;;;33.60;75.70;;;;;;4955314;29;20035;-63
2023/08/05 10:35:46;;;;;;;2.88;2.00;;;32.60;75.80;;;;;;4955125;28;20387;-63
2023/08/05 10:38:19;;;;;;;2.22;1.70;;;32.20;76.80;;;;;;4949477;29;20036;-63
2023/08/05 10:40:51;;;;;;;3.38;1.83;;;32.30;75.20;;;;;;4947233;29;20051;-64
2023/08/05 10:43:28;;;;;;;2.58;1.63;;;31.70;74.20;;;;;;4955864;28;20023;-63
2023/08/05 10:45:54;;;;;;;1.75;1.55;;;32.50;74.00;;;;;;4943792;29;20027;-63
2023/08/05 10:48:26;;;;;;;5.03;2.30;;;31.60;75.10;;;;;;4955040;29;20547;-62
2023/08/05 10:50:52;;;;;;;4.20;1.92;;;30.20;77.80;;;;;;4938123;29;20031;-62
2023/08/05 10:53:20;;;;;;;4.20;1.90;;;29.80;79.50;;;;;;4938480;29;20094;-62
2023/08/05 10:55:53;;;;;;;2.22;1.60;;;29.80;79.70;;;;;;4955301;28;20042;-63
2023/08/05 10:58:23;;;;;;;4.35;1.95;;;29.50;78.60;;;;;;4957830;28;20467;-64
2023/08/05 11:00:59;;;;;;;2.30;1.75;;;30.50;78.40;;;;;;4951477;29;20038;-62
2023/08/05 11:03:52;;;;;;;1.75;1.40;;;31.50;76.80;;;;;;4955054;29;20062;-62
2023/08/05 11:06:24;;;;;;;2.85;1.42;;;32.80;73.90;;;;;;4956363;28;20096;-62
2023/08/05 11:08:51;;;;;;;4.38;1.90;;;33.00;73.50;;;;;;4958572;29;20185;-61
2023/08/05 11:11:16;;;;;;;2.20;1.50;;;33.60;72.60;;;;;;4958139;29;20023;-62
2023/08/05 11:13:44;;;;;;;4.10;1.80;;;33.80;71.70;;;;;;4958268;29;20440;-62
2023/08/05 11:16:12;;;;;;;2.08;1.58;;;33.60;72.20;;;;;;4958162;29;20447;-63
2023/08/05 11:18:39;;;;;;;3.45;1.77;;;32.40;73.30;;;;;;4958262;29;20030;-62
2023/08/05 11:21:10;;;;;;;2.75;1.67;;;30.50;75.70;;;;;;4958541;29;20174;-62
2023/08/05 11:23:38;;;;;;;7.07;5.25;;;29.00;78.50;;;;;;4958177;29;20042;-61
2023/08/05 11:26:04;;;;;;;4.22;1.90;;;27.90;81.30;;;;;;4940950;29;20038;-60
2023/08/05 11:28:31;;;;;;;2.92;2.03;;;27.10;83.70;;;;;;4958003;29;20046;-63
2023/08/05 11:30:56;;;;;;;2.65;1.70;;;26.20;86.60;;;;;;4958235;29;20042;-62
2023/08/05 11:33:22;;;;;;;;;;;25.70;85.30;;;;;;4958274;29;20023;-62
2023/08/05 11:35:49;;;;;;;4.78;2.00;;;25.30;86.40;;;;;;4958002;28;19997;-62
2023/08/05 11:38:16;;;;;;;2.40;1.92;;;25.20;88.80;;;;;;4958280;29;20423;-62
2023/08/05 11:40:51;;;;;;;4.25;2.17;;;25.00;88.50;;;;;;4958222;29;20050;-61
2023/08/05 11:43:21;;;;;;;3.55;2.45;;;24.80;89.10;;;;;;4958385;29;20066;-64
2023/08/05 11:45:50;;;;;;;3.63;2.00;;;24.70;90.20;;;;;;4957949;28;20116;-61
2023/08/05 11:48:23;;;;;;;4.20;2.45;;;24.50;90.50;;;;;;4957142;29;20071;-61
2023/08/05 11:50:50;;;;;;;2.35;1.73;;;24.40;90.90;;;;;;4957826;29;20023;-61
2023/08/05 11:53:17;;;;;;;2.65;1.88;;;24.50;91.00;;;;;;4957501;29;20374;-62
2023/08/05 11:55:44;;;;;;;5.47;1.80;;;24.70;90.30;;;;;;4957643;28;20023;-62
2023/08/05 11:58:11;;;;;;;4.22;1.55;;;24.60;89.80;;;;;;4957437;29;20106;-61
2023/08/05 12:00:42;;;;;;;2.25;1.90;;;24.50;90.50;;;;;;4957313;29;20155;-62
2023/08/05 12:03:08;;;;;;;5.63;1.85;;;24.50;90.10;;;;;;4957121;29;20091;-62
2023/08/05 12:05:34;;;;;;;;;;;24.60;90.70;;;;;;4957504;28;20155;-62
2023/08/05 12:07:59;;;;;;;3.00;2.38;;;24.60;90.50;;;;;;4957215;29;19946;-62
2023/08/05 12:10:27;;;;;;;;;;;24.40;90.30;;;;;;4957474;29;20082;-62
2023/08/05 12:12:53;;;;;;;5.25;2.47;;;24.40;90.70;;;;;;4957062;29;20319;-61
2023/08/05 12:15:24;;;;;;;3.72;2.20;;;24.40;91.10;;;;;;4956872;28;20062;-63
2023/08/05 12:17:51;;;;;;;3.00;1.80;;;24.50;90.80;;;;;;4956006;28;20019;-62
2023/08/05 12:20:43;;;;;;;4.82;1.98;;;24.50;90.70;;;;;;4956967;29;20074;-61
2023/08/05 12:23:09;;;;;;;3.33;1.90;;;24.20;90.80;;;;;;4936153;29;20041;-60
2023/08/05 12:25:34;;;;;;;4.30;2.40;;;24.00;91.10;;;;;;4956863;28;20019;-62
2023/08/05 12:28:00;;;;;;;;;;;23.90;91.00;;;;;;4957201;29;20082;-63
2023/08/05 12:30:26;;;;;;;3.50;2.20;;;24.10;91.30;;;;;;4956969;29;19911;-62
2023/08/05 12:32:53;;;;;;;;;;;24.40;91.30;;;;;;4956974;29;20039;-61
2023/08/05 12:35:18;;;;;;;1.92;1.73;;;24.50;91.00;;;;;;4957066;28;19906;-61
2023/08/05 12:37:44;;;;;;;;;;;24.40;91.10;;;;;;4957173;29;20502;-62
2023/08/05 12:40:12;;;;;;;2.10;1.90;;;24.20;89.80;;;;;;4936383;29;19914;-64
2023/08/05 12:42:39;;;;;;;1.58;1.38;;;24.20;90.50;;;;;;4952835;29;20373;-61
2023/08/05 12:45:05;;;;;;;4.60;2.25;;;24.20;90.40;;;;;;4939490;29;20114;-61
2023/08/05 12:47:32;;;;;;;2.80;1.90;;;24.40;90.80;;;;;;4956028;29;20085;-60
2023/08/05 12:49:59;;;;;;;5.60;2.05;;;24.30;91.00;;;;;;4956639;29;20106;-61
2023/08/05 12:52:25;;;;;;;2.58;1.67;;;24.40;91.20;;;;;;4939234;29;20082;-61
2023/08/05 12:54:51;;;;;;;2.40;1.80;;;24.70;90.40;;;;;;4939608;28;20484;-63
2023/08/05 12:57:16;;;;;;;;;;;24.60;90.10;;;;;;4956984;29;20035;-63
2023/08/05 12:59:42;;;;;;;4.40;2.40;;;24.60;90.20;;;;;;4939237;29;19918;-62
2023/08/05 13:02:07;;;;;;;;;;;24.60;90.70;;;;;;4939457;29;20019;-62
2023/08/05 13:04:33;;;;;;;5.13;1.95;;;24.50;91.50;;;;;;4956302;29;19906;-63
2023/08/05 13:06:58;;;;;;;;;;;24.60;91.10;;;;;;4956646;28;20556;-62
2023/08/05 13:09:24;;;;;;;3.47;2.00;;;24.70;91.80;;;;;;4956323;29;20367;-63
2023/08/05 13:11:49;;;;;;;;;;;24.90;91.90;;;;;;4939295;29;20473;-62
2023/08/05 13:14:15;;;;;;;5.15;2.15;;;25.00;92.00;;;;;;4956220;29;19942;-62
2023/08/05 13:16:40;;;;;;;;;;;25.10;92.10;;;;;;4956167;28;20035;-62
2023/08/05 13:19:06;;;;;;;3.05;2.08;;;25.40;91.40;;;;;;4938658;29;19911;-63
2023/08/05 13:21:32;;;;;;;;;;;25.40;91.30;;;;;;4956413;29;20066;-62
2023/08/05 13:23:58;;;;;;;2.80;2.00;;;25.50;91.40;;;;;;4938551;29;19952;-62
2023/08/05 13:26:23;;;;;;;;;;;25.40;91.20;;;;;;4939137;29;20023;-61
2023/08/05 13:28:49;;;;;;;3.70;1.92;;;25.30;92.30;;;;;;4955673;28;20360;-61
2023/08/05 13:31:14;;;;;;;;;;;25.20;91.60;;;;;;4956980;29;20050;-60
2023/08/05 13:33:40;;;;;;;4.03;2.10;;;25.10;91.60;;;;;;4956317;29;19917;-60
2023/08/05 13:36:06;;;;;;;4.57;2.35;;;24.90;92.00;;;;;;4955645;28;20023;-64
2023/08/05 13:38:31;;;;;;;;;;;24.80;92.20;;;;;;4939204;29;20543;-65
2023/08/05 13:40:57;;;;;;;6.15;2.30;;;24.70;92.40;;;;;;4956058;29;20439;-65
2023/08/05 13:43:22;;;;;;;;;;;24.60;92.50;;;;;;4938959;29;20027;-66
2023/08/05 13:45:54;;;;;;;3.55;2.10;;;24.60;92.10;;;;;;4955896;28;19929;-64
2023/08/05 13:48:20;;;;;;;4.03;1.75;;;24.70;91.60;;;;;;4955575;29;20441;-64
2023/08/05 13:50:46;;;;;;;;;;;24.70;91.20;;;;;;4938922;29;20059;-64
2023/08/05 13:53:12;;;;;;;2.20;2.00;;;24.90;91.40;;;;;;4955504;29;19906;-64
2023/08/05 13:55:37;;;;;;;;;;;24.80;90.90;;;;;;4955962;28;20035;-64
2023/08/05 13:58:03;;;;;;;2.63;2.10;;;24.60;91.20;;;;;;4938231;29;19957;-65
2023/08/05 14:00:28;;;;;;;;;;;24.40;91.10;;;;;;4955878;29;20023;-66
2023/08/05 14:02:54;;;;;;;3.33;2.03;;;24.50;91.50;;;;;;4955123;29;20287;-65
2023/08/05 14:05:20;;;;;;;;;;;24.50;91.10;;;;;;4955523;28;20027;-63
2023/08/05 14:07:46;;;;;;;3.60;2.55;;;24.60;90.10;;;;;;4955210;29;19914;-64
2023/08/05 14:10:11;;;;;;;;;;;24.40;90.10;;;;;;4956362;29;20030;-64
2023/08/05 14:12:37;;;;;;;3.20;1.75;;;24.40;89.00;;;;;;4955303;29;19906;-64
2023/08/05 14:15:03;;;;;;;;;;;24.40;88.40;;;;;;4955661;28;20484;-64
2023/08/05 14:17:32;;;;;;;3.47;1.83;;;24.40;89.30;;;;;;4955074;29;19917;-64
2023/08/05 14:19:58;;;;;;;2.50;1.63;;;24.30;90.20;;;;;;4955439;29;20023;-64
2023/08/05 14:22:23;;;;;;;3.85;2.28;;;24.20;90.30;;;;;;4955307;29;20042;-64
2023/08/05 14:24:49;;;;;;;;;;;24.10;90.10;;;;;;4955656;28;20019;-64
2023/08/05 14:27:14;;;;;;;2.78;1.60;;;24.20;89.80;;;;;;4954778;29;20315;-64
2023/08/05 14:29:40;;;;;;;;;;;24.30;89.70;;;;;;4955347;29;20035;-63
2023/08/05 14:32:06;;;;;;;2.70;2.10;;;24.30;89.80;;;;;;4955104;29;19970;-64
2023/08/05 14:34:31;;;;;;;;;;;24.50;90.10;;;;;;4955200;29;20480;-64
2023/08/05 14:36:57;;;;;;;3.83;2.10;;;24.50;90.50;;;;;;4954900;28;19907;-65
2023/08/05 14:39:22;;;;;;;;;;;24.60;90.20;;;;;;4938245;28;20511;-64
2023/08/05 14:41:48;;;;;;;1.95;1.75;;;24.70;90.60;;;;;;4958479;29;19906;-63
2023/08/05 14:44:13;;;;;;;;;;;24.90;90.50;;;;;;4958876;29;20063;-63
2023/08/05 14:46:39;;;;;;;4.13;2.00;;;25.00;90.60;;;;;;4958457;28;19917;-63
2023/08/05 14:49:05;;;;;;;;;;;25.10;90.60;;;;;;4959232;29;20059;-64
2023/08/05 14:51:30;;;;;;;2.50;2.05;;;24.90;90.80;;;;;;4958722;29;20390;-64
2023/08/05 14:53:58;;;;;;;;;;;24.60;91.30;;;;;;4959213;29;20484;-63
2023/08/05 14:56:24;;;;;;;4.47;1.95;;;24.30;91.60;;;;;;4958942;28;19989;-63
2023/08/05 14:58:49;;;;;;;3.05;2.10;;;24.20;91.50;;;;;;4941608;29;20046;-63
2023/08/05 15:01:18;;;;;;;;;;;24.30;91.70;;;;;;4941726;29;20508;-63
2023/08/05 15:03:48;;;;;;;2.92;2.13;;;24.20;92.00;;;;;;4958428;29;19906;-64
2023/08/05 15:06:15;;;;;;;1.98;1.77;;;24.20;91.40;;;;;;4958517;28;20027;-65
2023/08/05 15:08:40;;;;;;;2.97;2.10;;;23.90;90.90;;;;;;4941310;29;20201;-65
2023/08/05 15:11:06;;;;;;;3.17;1.70;;;23.80;91.30;;;;;;4959067;29;20033;-66
2023/08/05 15:13:32;;;;;;;;;;;23.80;91.00;;;;;;4959023;29;20027;-66
2023/08/05 15:16:00;;;;;;;2.15;1.63;;;23.70;91.00;;;;;;4957750;28;19914;-63
2023/08/05 15:18:25;;;;;;;2.35;1.67;;;23.50;90.70;;;;;;4948452;29;20023;-63
2023/08/05 15:20:52;;;;;;;3.80;1.85;;;23.40;91.00;;;;;;4941047;29;20392;-64
2023/08/05 15:23:18;;;;;;;2.53;1.83;;;23.30;91.10;;;;;;4957786;29;20343;-65
2023/08/05 15:25:51;;;;;;;2.78;1.60;;;23.20;91.40;;;;;;4939789;29;20104;-65
2023/08/05 15:28:19;;;;;;;1.90;1.42;;;23.30;91.20;;;;;;4957056;29;20032;-64
2023/08/05 15:30:45;;;;;;;2.88;1.48;;;23.30;90.80;;;;;;4956917;29;20027;-63
2023/08/05 15:33:11;;;;;;;2.63;1.55;;;23.30;90.50;;;;;;4956553;29;20089;-64
2023/08/05 15:35:38;;;;;;;2.17;1.50;;;23.30;90.80;;;;;;4939398;29;20071;-65
2023/08/05 15:38:04;;;;;;;3.25;1.70;;;23.30;90.60;;;;;;4956883;29;20023;-63
2023/08/05 15:40:29;;;;;;;2.58;1.52;;;23.40;90.30;;;;;;4957094;29;20046;-64
2023/08/05 15:42:55;;;;;;;;;;;23.50;90.20;;;;;;4958246;29;20034;-62
2023/08/05 15:45:21;;;;;;;2.58;1.58;;;23.50;90.00;;;;;;4957584;28;20000;-64
2023/08/05 15:47:46;;;;;;;;;;;23.60;90.10;;;;;;4957989;29;20506;-63
2023/08/05 15:50:18;;;;;;;2.78;1.40;;;23.50;89.30;;;;;;4957641;29;19913;-64
2023/08/05 15:52:49;;;;;;;2.30;1.50;;;23.70;89.80;;;;;;4956711;28;20475;-63
2023/08/05 15:55:16;;;;;;;3.22;1.60;;;23.60;90.10;;;;;;4957791;28;20101;-63
2023/08/05 15:57:46;;;;;;;3.17;1.60;;;23.80;90.10;;;;;;4957689;29;20110;-63
2023/08/05 16:00:12;;;;;;;1.88;1.67;;;23.80;89.90;;;;;;4940610;29;20109;-64
2023/08/05 16:02:37;;;;;;;2.15;1.80;;;23.80;90.10;;;;;;4957209;29;20031;-63
2023/08/05 16:05:03;;;;;;;2.22;1.70;;;23.70;90.50;;;;;;4957253;28;20079;-64
2023/08/05 16:07:34;;;;;;;;;;;23.50;91.00;;;;;;4957873;29;20094;-64
2023/08/05 16:10:00;;;;;;;1.85;1.45;;;23.60;91.30;;;;;;4957232;29;20446;-64
2023/08/05 16:12:25;;;;;;;;;;;23.40;91.60;;;;;;4940648;29;20062;-65
2023/08/05 16:14:51;;;;;;;1.77;1.42;;;23.20;91.90;;;;;;4957063;28;19950;-63
2023/08/05 16:17:17;;;;;;;;;;;23.30;92.10;;;;;;4940535;29;20126;-63
2023/08/05 16:19:43;;;;;;;6.60;1.85;;;23.30;92.10;;;;;;4956876;29;19914;-64
2023/08/05 16:22:08;;;;;;;2.88;1.73;;;23.20;92.10;;;;;;4956789;29;20432;-64
2023/08/05 16:24:34;;;;;;;5.65;1.60;;;23.20;92.40;;;;;;4957119;29;20031;-62
2023/08/05 16:27:04;;;;;;;3.05;1.60;;;23.10;92.80;;;;;;4939877;29;20019;-64
2023/08/05 16:29:29;;;;;;;2.90;2.03;;;23.20;93.30;;;;;;4957593;29;20023;-66
2023/08/05 16:31:55;;;;;;;2.35;1.55;;;23.20;93.20;;;;;;4956735;29;20027;-63
2023/08/05 16:34:20;;;;;;;2.50;1.60;;;23.00;93.40;;;;;;4956675;29;20031;-64
2023/08/05 16:36:46;;;;;;;;;;;23.00;93.80;;;;;;4957662;28;20027;-64
2023/08/05 16:39:11;;;;;;;2.60;1.92;;;23.00;93.70;;;;;;4957087;29;19906;-64
2023/08/05 16:41:37;;;;;;;2.42;1.90;;;22.80;94.00;;;;;;4956709;29;20023;-64
2023/08/05 16:44:06;;;;;;;3.90;1.95;;;22.80;94.50;;;;;;4939838;29;20027;-63
2023/08/05 16:46:32;;;;;;;2.90;1.90;;;22.80;94.70;;;;;;4939522;29;20027;-63
2023/08/05 16:48:57;;;;;;;3.90;2.35;;;22.90;94.40;;;;;;4956875;29;20362;-62
2023/08/05 16:51:23;;;;;;;2.88;1.83;;;22.80;94.60;;;;;;4957153;29;20035;-63
2023/08/05 16:53:48;;;;;;;;;;;22.70;94.40;;;;;;4940253;29;20503;-64